Terminal Aerodrome Forecast
Issued by NWS El Paso, TX

Home | Current Version | Previous Version | Text Only | Print | Product List | Glossary On
Versions: 1 2 3 4 5 6 7 8 9 10 11 12
666
FTUS44 KEPZ 231724
TAFELP
TAF
KELP 231724Z 2318/2418 22027G37KT P6SM FEW060 FEW150
     FM232000 26032G45KT 2SM BLDU FEW060
      TEMPO 2320/2324 26038G50KT 1SM BLDU
     FM240200 29023G33KT P6SM FEW200=

USA.gov is the U.S. government's official web portal to all federal, state and local government web resources and services.